Time;durP1;ratioP1;P1;durP2;ratioP2;P2;SDS_P1;SDS_P2;PMS_P1;PMS_P2;Temp;Humidity;BMP_temperature;BMP_pressure;BME280_temperature;BME280_humidity;BME280_pressure;Samples;Min_cycle;Max_cycle;Signal;HPM_P1;HPM_P2
2023/12/21 00:00:34;;;;;;;5.15;2.22;;;5.30;99.90;;;;;;4959211;28;20031;-89
2023/12/21 00:03:00;;;;;;;3.60;2.35;;;5.30;99.90;;;;;;4958936;28;20035;-90
2023/12/21 00:05:26;;;;;;;3.90;2.55;;;5.30;99.90;;;;;;4959059;28;20037;-88
2023/12/21 00:07:51;;;;;;;4.65;4.18;;;5.30;99.90;;;;;;4958893;28;20449;-90
2023/12/21 00:10:17;;;;;;;5.32;4.85;;;5.40;99.90;;;;;;4959541;28;20418;-90
2023/12/21 00:12:42;;;;;;;6.22;1.67;;;5.30;99.90;;;;;;4959636;28;20059;-89
2023/12/21 00:15:08;;;;;;;2.03;1.23;;;5.30;99.90;;;;;;4960615;28;20074;-89
2023/12/21 00:17:34;;;;;;;3.88;2.15;;;5.30;99.90;;;;;;4959672;28;20020;-90
2023/12/21 00:20:00;;;;;;;3.45;1.70;;;5.30;99.90;;;;;;4960126;28;20034;-91
2023/12/21 00:22:26;;;;;;;2.78;1.95;;;5.40;99.90;;;;;;4943033;29;20031;-90
2023/12/21 00:24:51;;;;;;;2.95;1.65;;;5.40;99.90;;;;;;4959103;28;20055;-91
2023/12/21 00:27:17;;;;;;;2.78;1.77;;;5.40;99.90;;;;;;4959955;28;20027;-90
2023/12/21 00:29:42;;;;;;;4.47;1.73;;;5.50;99.90;;;;;;4960650;28;20031;-91
2023/12/21 00:32:08;;;;;;;4.97;1.92;;;5.50;99.90;;;;;;4959675;28;20101;-93
2023/12/21 00:34:34;;;;;;;1.95;1.58;;;5.50;99.90;;;;;;4959233;28;20047;-91
2023/12/21 00:36:59;;;;;;;3.08;1.92;;;5.50;99.90;;;;;;4959729;28;20604;-90
2023/12/21 00:39:25;;;;;;;4.22;1.42;;;5.50;99.90;;;;;;4959772;28;20030;-90
2023/12/21 00:41:50;;;;;;;2.05;1.75;;;5.60;99.90;;;;;;4959348;28;20024;-89
2023/12/21 00:44:16;;;;;;;3.33;1.70;;;5.50;99.90;;;;;;4957937;28;20027;-90
2023/12/21 00:46:42;;;;;;;3.80;1.45;;;5.50;99.90;;;;;;4962371;28;20186;-90
2023/12/21 00:49:07;;;;;;;2.15;1.60;;;5.50;99.90;;;;;;4960392;28;20073;-93
2023/12/21 00:51:33;;;;;;;4.05;1.98;;;5.50;99.90;;;;;;4961857;28;20086;-90
2023/12/21 00:53:59;;;;;;;3.22;1.13;;;5.50;99.90;;;;;;4959051;28;20035;-90
2023/12/21 00:56:25;;;;;;;3.03;1.17;;;5.50;99.90;;;;;;4958484;28;20026;-91
2023/12/21 00:58:51;;;;;;;3.97;2.10;;;5.40;99.90;;;;;;4956026;28;20035;-90
2023/12/21 01:01:16;;;;;;;5.38;1.48;;;5.50;99.90;;;;;;4956728;28;20030;-91
2023/12/21 01:03:42;;;;;;;2.22;1.65;;;5.50;99.90;;;;;;4948609;29;20047;-89
2023/12/21 01:06:08;;;;;;;2.47;1.10;;;5.50;99.90;;;;;;4957341;28;20027;-90
2023/12/21 01:08:33;;;;;;;5.50;2.00;;;5.50;99.90;;;;;;4950309;28;20082;-91
2023/12/21 01:11:00;;;;;;;2.45;1.80;;;5.40;99.90;;;;;;4956310;28;20062;-90
2023/12/21 01:13:26;;;;;;;3.55;1.27;;;5.50;99.90;;;;;;4959648;28;20163;-90
2023/12/21 01:15:52;;;;;;;3.70;1.75;;;5.40;99.90;;;;;;4965673;28;20022;-92
2023/12/21 01:18:18;;;;;;;2.20;1.27;;;5.50;99.90;;;;;;4956970;28;20038;-88
2023/12/21 01:20:43;;;;;;;5.78;1.88;;;5.50;99.90;;;;;;4958066;28;20031;-90
2023/12/21 01:23:09;;;;;;;3.95;1.40;;;5.50;99.90;;;;;;4938530;29;20061;-90
2023/12/21 01:25:35;;;;;;;2.35;1.58;;;5.50;99.90;;;;;;4936482;29;20023;-91
2023/12/21 01:28:00;;;;;;;2.85;1.73;;;5.50;99.90;;;;;;4938432;29;20188;-91
2023/12/21 01:30:27;;;;;;;1.90;1.40;;;5.50;99.90;;;;;;4953732;28;20030;-90
2023/12/21 01:32:53;;;;;;;2.05;1.85;;;5.50;99.90;;;;;;4960811;28;20123;-90
2023/12/21 01:35:20;;;;;;;2.63;1.42;;;5.50;99.90;;;;;;4958122;28;20043;-88
2023/12/21 01:37:45;;;;;;;2.90;1.70;;;5.50;99.90;;;;;;4937910;28;20019;-90
2023/12/21 01:40:11;;;;;;;3.15;1.70;;;5.50;99.90;;;;;;4958356;28;20051;-92
2023/12/21 01:42:37;;;;;;;2.50;1.67;;;5.50;99.90;;;;;;4958533;28;20027;-90
2023/12/21 01:45:03;;;;;;;3.00;1.42;;;5.50;99.90;;;;;;4958638;28;20031;-91
2023/12/21 01:47:29;;;;;;;2.63;1.27;;;5.50;99.90;;;;;;4963751;28;20118;-90
2023/12/21 01:49:54;;;;;;;2.35;2.15;;;5.50;99.90;;;;;;4949546;28;20034;-90
2023/12/21 01:52:20;;;;;;;3.33;1.48;;;5.50;99.90;;;;;;4956802;28;20042;-89
2023/12/21 01:54:46;;;;;;;2.20;1.42;;;5.50;99.90;;;;;;4958136;28;20038;-92
2023/12/21 01:57:13;;;;;;;3.65;1.52;;;5.60;99.90;;;;;;4956670;28;20596;-91
2023/12/21 01:59:38;;;;;;;4.43;1.40;;;5.60;99.90;;;;;;4957430;28;20102;-90
2023/12/21 02:02:04;;;;;;;1.60;1.40;;;5.60;99.90;;;;;;4958240;28;20079;-91
2023/12/21 02:04:29;;;;;;;1.85;1.73;;;5.60;99.90;;;;;;4958845;28;20032;-91
2023/12/21 02:06:55;;;;;;;3.92;3.05;;;5.60;99.90;;;;;;4966239;28;20401;-90
2023/12/21 02:09:21;;;;;;;2.22;1.55;;;5.60;99.90;;;;;;4961851;28;20086;-90
2023/12/21 02:11:46;;;;;;;1.58;1.48;;;5.60;99.90;;;;;;4958191;28;20031;-91
2023/12/21 02:14:12;;;;;;;2.72;1.77;;;5.60;99.90;;;;;;4965728;28;20038;-89
2023/12/21 02:16:49;;;;;;;2.38;1.25;;;5.60;99.90;;;;;;4959212;28;20019;-90
2023/12/21 02:19:15;;;;;;;3.92;2.17;;;5.60;99.90;;;;;;4957174;29;20016;-90
2023/12/21 02:21:42;;;;;;;4.15;2.05;;;5.60;99.90;;;;;;4966315;28;20169;-90
2023/12/21 02:24:14;;;;;;;4.63;1.73;;;5.60;99.90;;;;;;4956973;28;20521;-91
2023/12/21 02:26:39;;;;;;;3.17;1.63;;;5.60;99.90;;;;;;4958791;28;20042;-90
2023/12/21 02:29:05;;;;;;;2.95;1.58;;;5.60;99.90;;;;;;4959698;28;20035;-91
2023/12/21 02:31:31;;;;;;;3.17;1.58;;;5.60;99.90;;;;;;4953967;28;20078;-91
2023/12/21 02:33:57;;;;;;;1.83;1.73;;;5.60;99.90;;;;;;4956351;28;20394;-89
2023/12/21 02:36:22;;;;;;;1.50;1.38;;;5.70;99.90;;;;;;4957529;28;20016;-90
2023/12/21 02:38:48;;;;;;;2.88;2.58;;;5.60;99.90;;;;;;4958911;28;20378;-91
2023/12/21 02:41:14;;;;;;;1.25;0.98;;;5.60;99.90;;;;;;4944052;28;20022;-91
2023/12/21 02:43:39;;;;;;;1.17;1.05;;;5.60;99.90;;;;;;4968410;28;20038;-92
2023/12/21 02:46:05;;;;;;;2.08;1.23;;;5.70;99.90;;;;;;4959647;28;20034;-91
2023/12/21 02:48:30;;;;;;;3.22;3.03;;;5.70;99.90;;;;;;4956139;28;20742;-90
2023/12/21 02:50:56;;;;;;;1.13;1.00;;;5.70;99.90;;;;;;4955775;28;20019;-91
2023/12/21 02:53:22;;;;;;;1.17;0.90;;;5.70;99.90;;;;;;4955713;28;20035;-90
2023/12/21 02:55:48;;;;;;;1.95;1.25;;;5.70;99.90;;;;;;4955455;28;20085;-89
2023/12/21 02:58:13;;;;;;;1.30;0.88;;;5.70;99.90;;;;;;4958836;28;20023;-92
2023/12/21 03:00:39;;;;;;;1.55;1.30;;;5.70;99.90;;;;;;4956622;28;20031;-89
2023/12/21 03:03:04;;;;;;;1.90;1.75;;;5.70;99.90;;;;;;4953240;28;20059;-90
2023/12/21 03:05:30;;;;;;;1.95;1.35;;;5.80;99.90;;;;;;4953038;28;20027;-91
2023/12/21 03:07:57;;;;;;;0.77;0.70;;;5.80;99.90;;;;;;4960549;28;20086;-89
2023/12/21 03:10:22;;;;;;;1.15;0.90;;;5.80;99.90;;;;;;4958215;28;20494;-90
2023/12/21 03:12:49;;;;;;;2.45;1.08;;;5.80;99.90;;;;;;4960948;28;20489;-90
2023/12/21 03:15:14;;;;;;;1.40;1.27;;;5.80;99.90;;;;;;4961537;28;20334;-90
2023/12/21 03:17:40;;;;;;;1.58;1.58;;;5.80;99.90;;;;;;4943429;29;20028;-91
2023/12/21 03:20:07;;;;;;;1.13;0.82;;;5.80;99.90;;;;;;4961265;28;20035;-90
2023/12/21 03:22:36;;;;;;;0.80;0.80;;;5.80;99.90;;;;;;4946452;29;20035;-90
2023/12/21 03:25:01;;;;;;;2.50;1.60;;;5.80;99.90;;;;;;4959181;28;20039;-91
2023/12/21 03:27:27;;;;;;;2.58;2.38;;;5.90;99.90;;;;;;4960267;28;20388;-91
2023/12/21 03:29:53;;;;;;;1.55;1.42;;;5.90;99.90;;;;;;4960564;28;20028;-91
2023/12/21 03:32:18;;;;;;;1.35;1.25;;;5.90;99.90;;;;;;4930344;29;20481;-89
2023/12/21 03:34:44;;;;;;;1.05;0.73;;;5.90;99.90;;;;;;4948638;28;20529;-91
2023/12/21 03:37:09;;;;;;;1.17;1.17;;;5.90;99.90;;;;;;4960380;28;20031;-89
2023/12/21 03:39:35;;;;;;;2.40;1.40;;;6.00;99.90;;;;;;4960301;28;20027;-90
2023/12/21 03:42:02;;;;;;;0.95;0.90;;;5.90;99.90;;;;;;4940734;28;20463;-91
2023/12/21 03:44:28;;;;;;;1.15;1.15;;;5.90;99.90;;;;;;4942129;29;20036;-90
2023/12/21 03:46:53;;;;;;;2.35;1.27;;;5.90;99.90;;;;;;4963043;28;20200;-91
2023/12/21 03:49:19;;;;;;;1.45;1.45;;;5.90;99.90;;;;;;4959116;28;20545;-94
2023/12/21 03:51:45;;;;;;;1.42;1.17;;;5.90;99.90;;;;;;4957563;28;20035;-91
2023/12/21 03:54:10;;;;;;;1.25;0.60;;;6.00;99.90;;;;;;4959003;28;20047;-91
2023/12/21 03:56:39;;;;;;;1.10;1.10;;;6.00;99.90;;;;;;4959628;28;20026;-90
2023/12/21 03:59:05;;;;;;;1.63;0.63;;;6.00;99.90;;;;;;4960574;28;20027;-90
2023/12/21 04:01:31;;;;;;;0.98;0.90;;;6.00;99.90;;;;;;4969259;28;20046;-90
2023/12/21 04:03:56;;;;;;;1.08;1.08;;;6.00;99.90;;;;;;4960151;28;20509;-92
2023/12/21 04:06:22;;;;;;;1.65;0.98;;;6.00;99.90;;;;;;4968433;28;20039;-91
2023/12/21 04:08:48;;;;;;;1.40;1.27;;;6.00;99.90;;;;;;4960158;28;20629;-92
2023/12/21 04:11:14;;;;;;;0.75;0.75;;;6.00;99.90;;;;;;4960223;28;20035;-90
2023/12/21 04:13:39;;;;;;;1.05;0.85;;;6.00;99.90;;;;;;4959639;28;20174;-91
2023/12/21 04:16:06;;;;;;;1.00;1.00;;;6.10;99.90;;;;;;4967848;28;20656;-91
2023/12/21 04:18:32;;;;;;;1.15;0.90;;;6.10;99.90;;;;;;4969782;28;20026;-92
2023/12/21 04:20:58;;;;;;;1.33;0.90;;;6.10;99.90;;;;;;4961759;28;20070;-88
2023/12/21 04:23:26;;;;;;;1.38;0.80;;;6.10;99.90;;;;;;4962627;28;20043;-90
2023/12/21 04:25:52;;;;;;;1.67;1.45;;;6.10;99.90;;;;;;4969780;28;20030;-93
2023/12/21 04:28:18;;;;;;;1.15;1.05;;;6.10;99.90;;;;;;4962181;28;20498;-90
2023/12/21 04:30:43;;;;;;;1.63;0.93;;;6.10;99.90;;;;;;4963744;28;20039;-90
2023/12/21 04:33:11;;;;;;;1.65;1.55;;;6.10;99.90;;;;;;4938561;29;20035;-92
2023/12/21 04:35:37;;;;;;;1.75;0.93;;;6.20;99.90;;;;;;4955503;28;20015;-91
2023/12/21 04:38:03;;;;;;;1.00;0.93;;;6.20;99.90;;;;;;4960644;28;20023;-91
2023/12/21 04:40:28;;;;;;;1.20;0.50;;;6.20;99.90;;;;;;4962916;28;20054;-90
2023/12/21 04:42:55;;;;;;;1.30;1.20;;;6.20;99.90;;;;;;4962401;28;20049;-91
2023/12/21 04:45:23;;;;;;;1.08;1.08;;;6.20;99.90;;;;;;4963947;28;20577;-91
2023/12/21 04:47:49;;;;;;;1.08;1.02;;;6.20;99.90;;;;;;4941566;29;20027;-90
2023/12/21 04:50:15;;;;;;;1.15;1.13;;;6.20;99.90;;;;;;4945491;28;20105;-91
2023/12/21 04:52:40;;;;;;;1.23;1.13;;;6.20;99.90;;;;;;4954756;28;20077;-90
2023/12/21 04:55:07;;;;;;;0.63;0.63;;;6.20;99.90;;;;;;4956230;28;20054;-91
2023/12/21 04:57:33;;;;;;;1.10;1.08;;;6.20;99.90;;;;;;4954496;28;20038;-90
2023/12/21 04:59:58;;;;;;;1.15;1.10;;;6.20;99.90;;;;;;4951764;28;20115;-89
2023/12/21 05:02:24;;;;;;;1.33;1.23;;;6.20;99.90;;;;;;4956318;28;20079;-90
2023/12/21 05:04:49;;;;;;;1.20;1.10;;;6.20;99.90;;;;;;4959421;28;20023;-93
2023/12/21 05:07:15;;;;;;;1.00;1.00;;;6.20;99.90;;;;;;4958528;28;20522;-88
2023/12/21 05:09:40;;;;;;;0.77;0.77;;;6.20;99.90;;;;;;4950859;29;20031;-90
2023/12/21 05:12:07;;;;;;;1.50;1.20;;;6.30;99.90;;;;;;4966146;28;20118;-90
2023/12/21 05:14:32;;;;;;;1.05;0.95;;;6.20;99.90;;;;;;4957033;28;20031;-91
2023/12/21 05:16:58;;;;;;;1.95;1.35;;;6.20;99.90;;;;;;4964942;28;20019;-91
2023/12/21 05:19:24;;;;;;;0.98;0.90;;;6.20;99.90;;;;;;4940358;29;20058;-92
2023/12/21 05:21:49;;;;;;;1.58;0.90;;;6.20;99.90;;;;;;4948960;28;20055;-90
2023/12/21 05:24:15;;;;;;;1.67;0.85;;;6.20;99.90;;;;;;4962060;28;20039;-90
2023/12/21 05:26:43;;;;;;;2.38;1.02;;;6.10;99.90;;;;;;4957896;28;20028;-91
2023/12/21 05:29:09;;;;;;;0.80;0.80;;;6.10;99.90;;;;;;4942261;28;20043;-91
2023/12/21 05:31:37;;;;;;;0.98;0.95;;;6.00;99.90;;;;;;4959306;28;20031;-91
2023/12/21 05:34:04;;;;;;;0.82;0.82;;;6.00;99.90;;;;;;4958474;28;20086;-90
2023/12/21 05:36:30;;;;;;;2.13;0.73;;;6.10;99.90;;;;;;4944017;28;20035;-90
2023/12/21 05:38:56;;;;;;;0.90;0.90;;;6.10;99.90;;;;;;4939141;28;20117;-90
2023/12/21 05:41:21;;;;;;;0.77;0.77;;;6.00;99.90;;;;;;4958002;28;20034;-92
2023/12/21 05:43:47;;;;;;;1.10;1.08;;;6.00;99.90;;;;;;4958106;28;20027;-91
2023/12/21 05:46:13;;;;;;;0.88;0.88;;;6.00;99.90;;;;;;4942103;28;20511;-92
2023/12/21 05:48:39;;;;;;;0.60;0.60;;;6.00;99.90;;;;;;4949055;28;20024;-88
2023/12/21 05:51:04;;;;;;;1.25;1.15;;;6.00;99.90;;;;;;4958719;28;20031;-90
2023/12/21 05:53:30;;;;;;;1.00;1.00;;;6.00;99.90;;;;;;4939118;29;20035;-91
2023/12/21 05:55:56;;;;;;;0.88;0.77;;;6.00;99.90;;;;;;4957416;28;20046;-90
2023/12/21 05:58:22;;;;;;;1.40;1.30;;;6.00;99.90;;;;;;4941093;29;20027;-92
2023/12/21 06:00:48;;;;;;;1.38;1.38;;;6.00;99.90;;;;;;4943352;28;20420;-90
2023/12/21 06:03:13;;;;;;;0.75;0.75;;;6.00;99.90;;;;;;4968319;28;20146;-91
2023/12/21 06:05:39;;;;;;;1.55;1.13;;;6.00;99.90;;;;;;4936326;29;20076;-90
2023/12/21 06:08:05;;;;;;;1.05;0.73;;;6.00;99.90;;;;;;4957851;28;20034;-90
2023/12/21 06:10:31;;;;;;;3.20;3.10;;;6.10;99.90;;;;;;4955381;28;20431;-91
2023/12/21 06:12:57;;;;;;;1.92;1.77;;;6.10;99.90;;;;;;4956481;28;20034;-90
2023/12/21 06:15:22;;;;;;;3.80;1.08;;;6.10;99.90;;;;;;4961122;28;20087;-91
2023/12/21 06:17:48;;;;;;;0.93;0.93;;;6.10;99.90;;;;;;4942591;28;20028;-90
2023/12/21 06:20:14;;;;;;;0.82;0.68;;;6.10;99.90;;;;;;4954066;28;20030;-93
2023/12/21 06:22:40;;;;;;;0.82;0.82;;;6.20;99.90;;;;;;4937286;29;20055;-91
2023/12/21 06:25:06;;;;;;;0.68;0.68;;;6.10;99.90;;;;;;4936058;28;20046;-91
2023/12/21 06:27:31;;;;;;;5.50;1.27;;;6.10;99.90;;;;;;4960829;28;20023;-90
2023/12/21 06:29:57;;;;;;;0.68;0.68;;;6.20;99.90;;;;;;4959133;28;20153;-92
2023/12/21 06:32:26;;;;;;;2.22;1.23;;;6.20;99.90;;;;;;4959358;28;20028;-92
2023/12/21 06:34:51;;;;;;;0.77;0.45;;;6.20;99.90;;;;;;4945199;28;20031;-89
2023/12/21 06:37:17;;;;;;;1.15;0.40;;;6.30;99.90;;;;;;4962148;28;20174;-91
2023/12/21 06:39:43;;;;;;;0.70;0.63;;;6.30;99.90;;;;;;4964037;28;20077;-93
2023/12/21 06:42:08;;;;;;;1.00;0.63;;;6.30;99.90;;;;;;4961034;28;20019;-89
2023/12/21 06:44:34;;;;;;;1.35;1.13;;;6.30;99.90;;;;;;4964916;28;20066;-90
2023/12/21 06:46:59;;;;;;;2.53;2.42;;;6.30;99.90;;;;;;4966595;28;20550;-90
2023/12/21 06:49:25;;;;;;;1.00;0.95;;;6.30;99.90;;;;;;4945569;29;20214;-91
2023/12/21 06:51:51;;;;;;;1.55;1.52;;;6.30;99.90;;;;;;4961932;28;20397;-91
2023/12/21 06:54:17;;;;;;;0.77;0.77;;;6.40;99.90;;;;;;4962149;28;20079;-89
2023/12/21 06:56:43;;;;;;;3.20;3.08;;;6.50;99.90;;;;;;4939335;28;20578;-90
2023/12/21 06:59:09;;;;;;;1.00;0.70;;;6.50;99.90;;;;;;4969948;28;20041;-90
2023/12/21 07:01:35;;;;;;;1.25;1.25;;;6.50;99.90;;;;;;4966522;28;20023;-91
2023/12/21 07:04:00;;;;;;;0.90;0.68;;;6.50;99.90;;;;;;4962218;28;20035;-91
2023/12/21 07:06:26;;;;;;;2.50;0.90;;;6.50;99.90;;;;;;4961630;28;20037;-89
2023/12/21 07:08:52;;;;;;;0.82;0.82;;;6.50;99.90;;;;;;4941904;29;20043;-91
2023/12/21 07:11:18;;;;;;;0.60;0.60;;;6.60;99.90;;;;;;4939531;29;20508;-90
2023/12/21 07:13:44;;;;;;;1.38;1.05;;;6.60;99.90;;;;;;4955731;28;20132;-90
2023/12/21 07:16:11;;;;;;;0.75;0.75;;;6.70;99.90;;;;;;4938555;29;20034;-90
2023/12/21 07:18:36;;;;;;;0.50;0.50;;;6.70;99.90;;;;;;4961600;28;20027;-89
2023/12/21 07:21:03;;;;;;;0.85;0.85;;;6.70;99.90;;;;;;4963688;28;20058;-92
2023/12/21 07:23:29;;;;;;;0.90;0.88;;;6.70;99.90;;;;;;4960606;28;20019;-90
2023/12/21 07:25:55;;;;;;;1.38;0.75;;;6.70;99.90;;;;;;4961748;28;20023;-91
2023/12/21 07:28:22;;;;;;;1.67;0.80;;;6.80;99.90;;;;;;4973641;28;20517;-90
2023/12/21 07:30:48;;;;;;;0.70;0.65;;;6.80;99.90;;;;;;4940078;28;20035;-90
2023/12/21 07:33:13;;;;;;;0.60;0.60;;;6.80;99.90;;;;;;4960275;28;20035;-89
2023/12/21 07:35:39;;;;;;;0.50;0.50;;;6.80;99.90;;;;;;4960203;28;20482;-92
2023/12/21 07:38:08;;;;;;;1.13;0.82;;;6.80;99.90;;;;;;4958884;28;20055;-92
2023/12/21 07:40:33;;;;;;;1.05;0.70;;;6.80;99.90;;;;;;4968324;28;20516;-89
2023/12/21 07:42:59;;;;;;;0.82;0.82;;;6.80;99.90;;;;;;4943145;28;20131;-91
2023/12/21 07:45:25;;;;;;;1.55;1.08;;;6.80;99.90;;;;;;4943706;28;20082;-91
2023/12/21 07:47:50;;;;;;;2.65;0.70;;;6.80;99.90;;;;;;4962757;28;20031;-90
2023/12/21 07:50:16;;;;;;;1.10;0.75;;;6.80;99.90;;;;;;4962706;28;20034;-91
2023/12/21 07:52:41;;;;;;;1.25;1.25;;;6.80;99.90;;;;;;4967908;28;20042;-91
2023/12/21 07:55:07;;;;;;;0.73;0.70;;;6.80;99.90;;;;;;4960675;28;20111;-91
2023/12/21 07:57:33;;;;;;;0.68;0.68;;;6.80;99.90;;;;;;4963099;28;20089;-90
2023/12/21 07:59:59;;;;;;;0.80;0.80;;;6.80;99.90;;;;;;4963668;28;20099;-90
2023/12/21 08:02:24;;;;;;;0.77;0.65;;;6.80;99.90;;;;;;4956719;28;20031;-91
2023/12/21 08:04:50;;;;;;;0.82;0.82;;;6.80;99.90;;;;;;4962003;28;20028;-91
2023/12/21 08:07:16;;;;;;;0.93;0.93;;;6.80;99.90;;;;;;4952109;29;20034;-91
2023/12/21 08:09:42;;;;;;;1.42;0.68;;;6.80;99.90;;;;;;4959860;28;20031;-91
2023/12/21 08:12:08;;;;;;;0.60;0.60;;;6.80;99.90;;;;;;4969168;28;20035;-91
2023/12/21 08:14:37;;;;;;;1.27;0.85;;;6.80;99.90;;;;;;4959524;28;20134;-90
2023/12/21 08:17:07;;;;;;;0.85;0.85;;;6.80;99.90;;;;;;4962104;28;20896;-90
2023/12/21 08:19:33;;;;;;;0.80;0.80;;;6.80;99.90;;;;;;4943425;29;20482;-90
2023/12/21 08:21:59;;;;;;;0.77;0.77;;;6.90;99.90;;;;;;4958300;28;20027;-90
2023/12/21 08:24:24;;;;;;;0.52;0.43;;;7.00;99.90;;;;;;4957469;28;20035;-91
2023/12/21 08:26:50;;;;;;;0.77;0.77;;;6.90;99.90;;;;;;4938907;28;20035;-90
2023/12/21 08:29:16;;;;;;;0.75;0.75;;;7.10;99.90;;;;;;4961918;28;20033;-92
2023/12/21 08:31:42;;;;;;;0.90;0.52;;;7.10;99.90;;;;;;4933316;29;20032;-91
2023/12/21 08:34:08;;;;;;;0.90;0.75;;;7.20;99.90;;;;;;4966808;28;20031;-91
2023/12/21 08:36:33;;;;;;;0.85;0.85;;;7.20;99.90;;;;;;4958643;28;20019;-91
2023/12/21 08:39:01;;;;;;;0.70;0.60;;;7.20;99.90;;;;;;4958418;28;20034;-90
2023/12/21 08:41:26;;;;;;;1.08;1.08;;;7.30;99.90;;;;;;4938832;29;20020;-90
2023/12/21 08:43:52;;;;;;;1.90;1.80;;;7.20;99.90;;;;;;4969343;28;20027;-90
2023/12/21 08:46:19;;;;;;;1.10;1.10;;;7.20;99.90;;;;;;4950860;28;20042;-90
2023/12/21 08:48:44;;;;;;;0.95;0.95;;;7.30;99.90;;;;;;4941908;28;20095;-90
2023/12/21 08:51:10;;;;;;;1.08;1.08;;;7.20;99.90;;;;;;4959344;28;20498;-91
2023/12/21 08:53:35;;;;;;;1.52;0.60;;;7.30;99.90;;;;;;4958860;28;20038;-91
2023/12/21 08:56:03;;;;;;;0.68;0.68;;;7.20;99.90;;;;;;4963365;28;20027;-90
2023/12/21 08:58:29;;;;;;;0.57;0.50;;;7.20;99.90;;;;;;4959174;28;20023;-90
2023/12/21 09:00:55;;;;;;;2.38;1.95;;;7.20;99.90;;;;;;4958873;28;20500;-91
2023/12/21 09:03:21;;;;;;;1.15;1.15;;;7.30;99.90;;;;;;4959071;28;20035;-90
2023/12/21 09:05:47;;;;;;;0.95;0.65;;;7.20;99.90;;;;;;4947010;28;20031;-91
2023/12/21 09:08:12;;;;;;;0.93;0.90;;;7.20;99.90;;;;;;4959441;28;20027;-90
2023/12/21 09:10:38;;;;;;;0.80;0.80;;;7.20;99.90;;;;;;4978240;28;20037;-90
2023/12/21 09:13:03;;;;;;;1.50;1.48;;;7.20;99.90;;;;;;4946891;28;20406;-92
2023/12/21 09:15:29;;;;;;;0.98;0.73;;;7.20;99.90;;;;;;4963269;28;20019;-92
2023/12/21 09:17:55;;;;;;;0.75;0.73;;;7.20;99.90;;;;;;4957679;28;20015;-90
2023/12/21 09:20:20;;;;;;;2.83;2.72;;;7.20;99.90;;;;;;4965142;28;20521;-89
2023/12/21 09:22:47;;;;;;;1.60;1.27;;;7.20;99.90;;;;;;4956650;28;20653;-90
2023/12/21 09:25:13;;;;;;;0.63;0.63;;;7.20;99.90;;;;;;4930009;29;20032;-91
2023/12/21 09:27:39;;;;;;;2.08;1.38;;;7.20;99.90;;;;;;4958186;28;20035;-90
2023/12/21 09:30:05;;;;;;;1.85;0.50;;;7.20;99.90;;;;;;4958027;28;20043;-91
2023/12/21 09:32:31;;;;;;;1.58;1.50;;;7.20;99.90;;;;;;4957320;28;20626;-90
2023/12/21 09:34:57;;;;;;;2.60;1.30;;;7.20;99.90;;;;;;4923968;29;20039;-92
2023/12/21 09:37:23;;;;;;;0.90;0.90;;;7.20;99.90;;;;;;4935534;29;20085;-90
2023/12/21 09:39:49;;;;;;;1.95;0.82;;;7.20;99.90;;;;;;4959982;28;20031;-90
2023/12/21 09:42:15;;;;;;;1.13;1.02;;;7.30;99.90;;;;;;4962675;28;20024;-88
2023/12/21 09:44:46;;;;;;;1.23;1.13;;;7.40;99.90;;;;;;4965185;28;20035;-90
2023/12/21 09:47:13;;;;;;;0.80;0.50;;;7.50;99.90;;;;;;4957961;28;20031;-89
2023/12/21 09:49:41;;;;;;;0.35;0.35;;;7.50;99.90;;;;;;4957245;28;20031;-91
2023/12/21 09:52:08;;;;;;;0.80;0.80;;;7.50;99.90;;;;;;4941271;28;20118;-90
2023/12/21 09:54:40;;;;;;;0.43;0.43;;;7.50;99.90;;;;;;4957326;28;20089;-89
2023/12/21 09:57:06;;;;;;;0.68;0.68;;;7.50;99.90;;;;;;4941663;28;20019;-91
2023/12/21 09:59:35;;;;;;;1.25;1.02;;;7.50;99.90;;;;;;4956993;28;20470;-91
2023/12/21 10:02:01;;;;;;;0.70;0.70;;;7.50;99.90;;;;;;4958319;28;20047;-89
2023/12/21 10:04:27;;;;;;;0.57;0.30;;;7.50;99.90;;;;;;4940348;29;20027;-91
2023/12/21 10:06:53;;;;;;;0.68;0.68;;;7.50;99.90;;;;;;4942177;28;20508;-89
2023/12/21 10:09:19;;;;;;;1.10;1.10;;;7.50;99.90;;;;;;4964732;28;20059;-90
2023/12/21 10:11:44;;;;;;;1.38;1.27;;;7.60;99.90;;;;;;4958829;28;20022;-92
2023/12/21 10:14:19;;;;;;;1.52;0.73;;;7.60;99.90;;;;;;4957522;28;20035;-92
2023/12/21 10:16:45;;;;;;;1.98;1.88;;;7.60;99.90;;;;;;4957007;28;20450;-90
2023/12/21 10:19:12;;;;;;;2.08;0.73;;;7.60;99.90;;;;;;4939005;29;20023;-90
2023/12/21 10:21:42;;;;;;;1.05;0.90;;;7.70;99.90;;;;;;4961877;28;20051;-89
2023/12/21 10:24:08;;;;;;;1.25;1.23;;;7.80;99.90;;;;;;4937528;29;20669;-89
2023/12/21 10:26:47;;;;;;;1.63;0.55;;;7.80;99.90;;;;;;4952135;28;20053;-92
2023/12/21 10:29:17;;;;;;;1.17;0.82;;;7.80;99.90;;;;;;4954976;28;20096;-90
2023/12/21 10:31:47;;;;;;;0.70;0.52;;;7.90;99.90;;;;;;4963144;28;20090;-89
2023/12/21 10:34:13;;;;;;;0.73;0.63;;;8.00;99.90;;;;;;4943090;28;20483;-89
2023/12/21 10:36:42;;;;;;;0.80;0.80;;;8.00;99.90;;;;;;4956951;28;20034;-90
2023/12/21 10:39:10;;;;;;;0.50;0.50;;;8.10;99.90;;;;;;4956865;28;20028;-91
2023/12/21 10:41:35;;;;;;;1.10;0.80;;;8.10;99.90;;;;;;4941998;28;20034;-90
2023/12/21 10:44:01;;;;;;;0.80;0.80;;;8.10;99.90;;;;;;4937089;28;20023;-91
2023/12/21 10:46:57;;;;;;;1.48;1.38;;;8.10;99.90;;;;;;4952934;28;20951;-91
2023/12/21 10:52:47;;;;;;;1.02;1.02;;;8.10;99.90;;;;;;4865041;28;20042;-90
2023/12/21 10:55:17;;;;;;;1.20;1.10;;;8.20;99.90;;;;;;4958319;28;20035;-90
2023/12/21 10:57:51;;;;;;;0.75;0.75;;;8.20;99.90;;;;;;4958103;28;20722;-91
2023/12/21 11:00:17;;;;;;;0.50;0.43;;;8.20;99.90;;;;;;4943703;28;20031;-90
2023/12/21 11:02:52;;;;;;;0.75;0.75;;;8.20;99.90;;;;;;4965106;28;20115;-90
2023/12/21 11:05:21;;;;;;;1.15;1.05;;;8.20;99.90;;;;;;4954237;28;20027;-91
2023/12/21 11:07:51;;;;;;;1.25;0.95;;;8.20;99.90;;;;;;4955875;28;20125;-90
2023/12/21 11:10:26;;;;;;;0.82;0.80;;;8.20;99.90;;;;;;4956406;28;20027;-90
2023/12/21 11:12:52;;;;;;;1.00;0.98;;;8.10;99.90;;;;;;4936798;29;20023;-89
2023/12/21 11:15:20;;;;;;;1.83;0.63;;;8.10;99.90;;;;;;4951854;28;20063;-89
2023/12/21 11:18:09;;;;;;;0.88;0.88;;;8.10;99.90;;;;;;4956763;28;20482;-91
2023/12/21 11:20:44;;;;;;;1.50;1.08;;;8.10;99.90;;;;;;4953315;28;20068;-90
2023/12/21 11:23:17;;;;;;;1.00;0.82;;;8.00;99.90;;;;;;4939751;28;20040;-91
2023/12/21 11:25:43;;;;;;;0.75;0.75;;;7.90;99.90;;;;;;4959651;28;20500;-90
2023/12/21 11:28:09;;;;;;;0.60;0.60;;;8.00;99.90;;;;;;4961949;28;20037;-90
2023/12/21 11:30:35;;;;;;;8.13;1.52;;;8.00;99.90;;;;;;4961868;28;20023;-92
2023/12/21 11:33:09;;;;;;;0.63;0.63;;;8.00;99.90;;;;;;4944500;28;20520;-90
2023/12/21 11:35:35;;;;;;;0.82;0.82;;;8.00;99.90;;;;;;4942633;28;20026;-90
2023/12/21 11:38:05;;;;;;;2.88;1.00;;;8.00;99.90;;;;;;4959053;28;20032;-93
2023/12/21 11:40:32;;;;;;;1.05;0.95;;;8.00;99.90;;;;;;4955360;28;20028;-92
2023/12/21 11:43:00;;;;;;;0.68;0.68;;;8.00;99.90;;;;;;4958462;28;20027;-89
2023/12/21 11:45:30;;;;;;;;;;;8.00;99.90;;;;;;4962407;28;20485;-89
2023/12/21 11:48:04;;;;;;;1.42;0.70;;;8.00;99.90;;;;;;4959839;28;19914;-91
2023/12/21 11:50:31;;;;;;;0.70;0.70;;;8.10;99.90;;;;;;4946340;28;20094;-93
2023/12/21 11:53:25;;;;;;;2.35;0.80;;;8.20;99.90;;;;;;4962736;28;20031;-90
2023/12/21 11:55:51;;;;;;;2.55;2.45;;;8.10;99.90;;;;;;4937426;28;20364;-89
2023/12/21 11:58:22;;;;;;;0.60;0.60;;;8.10;99.90;;;;;;4962119;28;20126;-91
2023/12/21 12:00:56;;;;;;;2.67;1.52;;;8.20;99.90;;;;;;4945157;28;20061;-92
2023/12/21 12:03:27;;;;;;;0.73;0.73;;;8.20;99.90;;;;;;4958133;28;20031;-91
2023/12/21 12:06:03;;;;;;;1.40;0.80;;;8.20;99.90;;;;;;4965390;28;20039;-89
2023/12/21 12:08:29;;;;;;;0.88;0.88;;;8.10;99.90;;;;;;4944981;28;20073;-91
2023/12/21 12:10:59;;;;;;;1.23;1.23;;;8.10;99.90;;;;;;4958588;28;20035;-93
2023/12/21 12:13:25;;;;;;;3.05;2.85;;;8.10;99.90;;;;;;4943861;29;20402;-90
2023/12/21 12:15:52;;;;;;;0.70;0.70;;;7.90;99.90;;;;;;4960435;28;20113;-93
2023/12/21 12:18:21;;;;;;;1.83;1.73;;;7.90;99.90;;;;;;4951325;28;20412;-93
2023/12/21 12:20:51;;;;;;;1.92;1.83;;;7.90;99.90;;;;;;4958151;28;20506;-92
2023/12/21 12:23:18;;;;;;;1.23;0.90;;;7.80;99.90;;;;;;4962806;28;20031;-92
2023/12/21 12:25:44;;;;;;;1.92;1.00;;;7.80;99.90;;;;;;4964945;28;20034;-94
2023/12/21 12:28:10;;;;;;;1.13;0.68;;;7.80;99.90;;;;;;4948677;28;20035;-91
2023/12/21 12:30:36;;;;;;;1.02;1.02;;;7.80;99.90;;;;;;4957872;28;20119;-89
2023/12/21 12:33:03;;;;;;;0.75;0.75;;;7.80;99.90;;;;;;4937784;28;20158;-92
2023/12/21 12:35:34;;;;;;;1.65;1.58;;;7.80;99.90;;;;;;4962168;28;20032;-90
2023/12/21 12:38:00;;;;;;;2.03;1.67;;;7.80;99.90;;;;;;4965012;28;20395;-91
2023/12/21 12:40:26;;;;;;;1.17;1.08;;;7.70;99.90;;;;;;4938786;28;20032;-90
2023/12/21 12:42:52;;;;;;;1.88;1.38;;;7.80;99.90;;;;;;4948810;28;20514;-92
2023/12/21 12:45:18;;;;;;;1.35;1.20;;;7.80;99.90;;;;;;4947335;28;20069;-89
2023/12/21 12:47:44;;;;;;;2.85;1.40;;;7.80;99.90;;;;;;4959415;28;20038;-92
2023/12/21 12:50:11;;;;;;;1.30;1.13;;;7.80;99.90;;;;;;4960444;28;20066;-91
2023/12/21 12:52:41;;;;;;;0.98;0.73;;;7.80;99.90;;;;;;4959932;28;20027;-91
2023/12/21 12:55:11;;;;;;;2.10;1.10;;;7.70;99.90;;;;;;4947082;28;20023;-91
2023/12/21 12:57:48;;;;;;;0.90;0.90;;;7.70;99.90;;;;;;4956947;28;20026;-89